Cenk Y — TCZV7 — position and weather

sailwx.info

Track history (hours):
 
Tides and Currents Weather Stations Pressure Air Temp Water Temp Dewpoint Dewpoint Depression Visibility Wind Speed Wind Dir Waves Ship Positions

Cenk Y

Last reported at 2017-Oct-14 20:33 UTC. Time now 2017-Oct-17 17:27 UTC.
Position N 46°19' E 030°42'.

Length 150 m; draft 4.7 m.

Type: Ship. MMSI: 271042575.

Date/timePositionNaut miles runAvg speedWind from/ knotsBaromVisibWave heightAir tempDewpointWater temp
2017-Oct-14 20:33N 46°19' E 030°42'2 0.1
2017-Oct-13 15:55N 46°21' E 030°39'  
2017-Oct-10 22:52N 46°19' E 030°43'3 0.2
2017-Oct-10 06:45N 46°21' E 030°39'1 2.8
2017-Oct-10 06:30N 46°20' E 030°39'  
2017-Oct-06 09:14N 44°02' E 030°56'514.8
2017-Oct-06 08:54N 44°07' E 030°58'614.9
2017-Oct-06 08:29N 44°13' E 030°60'714.8
2017-Oct-06 08:00N 44°20' E 031°02'714.8
2017-Oct-06 07:30N 44°27' E 031°04'714.6
2017-Oct-06 07:00N 44°34' E 031°07'714.3
2017-Oct-06 06:30N 44°42' E 031°08'714.3
2017-Oct-06 05:59N 44°49' E 031°06'714.1
2017-Oct-06 05:30N 44°56' E 031°06'714.0
2017-Oct-06 05:00N 45°03' E 031°05'914.0
2017-Oct-06 04:21N 45°12' E 031°03'514.1
2017-Oct-06 03:59N 45°17' E 031°02'814.3
2017-Oct-06 03:26N 45°24' E 030°60'  
Track history (hours):
 
Tides and Currents Weather Stations Pressure Air Temp Water Temp Dewpoint Dewpoint Depression Visibility Wind Speed Wind Dir Waves Ship Positions

Cenk Y

Last reported at 2017-Oct-14 20:33 UTC. Time now 2017-Oct-17 17:27 UTC.
Position N 46°19' E 030°42'.

Length 150 m; draft 4.7 m.

Type: Ship. MMSI: 271042575.

Date/timePositionNaut miles runAvg speedWind from/ knotsBaromVisibWave heightAir tempDewpointWater temp
2017-Oct-14 20:33N 46°19' E 030°42'2 0.1
2017-Oct-13 15:55N 46°21' E 030°39'  
2017-Oct-10 22:52N 46°19' E 030°43'3 0.2
2017-Oct-10 06:45N 46°21' E 030°39'1 2.8
2017-Oct-10 06:30N 46°20' E 030°39'  
2017-Oct-06 09:14N 44°02' E 030°56'514.8
2017-Oct-06 08:54N 44°07' E 030°58'614.9
2017-Oct-06 08:29N 44°13' E 030°60'714.8
2017-Oct-06 08:00N 44°20' E 031°02'714.8
2017-Oct-06 07:30N 44°27' E 031°04'714.6
2017-Oct-06 07:00N 44°34' E 031°07'714.3
2017-Oct-06 06:30N 44°42' E 031°08'714.3
2017-Oct-06 05:59N 44°49' E 031°06'714.1
2017-Oct-06 05:30N 44°56' E 031°06'714.0
2017-Oct-06 05:00N 45°03' E 031°05'914.0
2017-Oct-06 04:21N 45°12' E 031°03'514.1
2017-Oct-06 03:59N 45°17' E 031°02'814.3
2017-Oct-06 03:26N 45°24' E 030°60'  

Dump ship's entire track history